sensor_id;sensor_type;location;lat;lon;timestamp;P1;durP1;ratioP1;P2;durP2;ratioP2
34673;SDS011;20879;55.668;37.858;2023-04-02T00:02:55;30.17;;;17.95;;
34673;SDS011;20879;55.668;37.858;2023-04-02T00:05:42;29.73;;;17.63;;
34673;SDS011;20879;55.668;37.858;2023-04-02T00:08:28;31.10;;;17.48;;
34673;SDS011;20879;55.668;37.858;2023-04-02T00:11:06;27.67;;;17.00;;
34673;SDS011;20879;55.668;37.858;2023-04-02T00:13:38;27.77;;;17.23;;
34673;SDS011;20879;55.668;37.858;2023-04-02T00:16:18;26.65;;;17.00;;
34673;SDS011;20879;55.668;37.858;2023-04-02T00:18:53;30.40;;;17.73;;
34673;SDS011;20879;55.668;37.858;2023-04-02T00:21:32;28.42;;;17.42;;
34673;SDS011;20879;55.668;37.858;2023-04-02T00:24:15;29.33;;;17.15;;
34673;SDS011;20879;55.668;37.858;2023-04-02T00:26:47;27.45;;;16.20;;
34673;SDS011;20879;55.668;37.858;2023-04-02T00:29:18;31.55;;;17.52;;
34673;SDS011;20879;55.668;37.858;2023-04-02T00:31:49;29.07;;;17.20;;
34673;SDS011;20879;55.668;37.858;2023-04-02T00:34:26;30.08;;;17.08;;
34673;SDS011;20879;55.668;37.858;2023-04-02T00:37:04;26.35;;;17.02;;
34673;SDS011;20879;55.668;37.858;2023-04-02T00:39:36;31.02;;;18.25;;
34673;SDS011;20879;55.668;37.858;2023-04-02T00:42:08;32.38;;;17.27;;
34673;SDS011;20879;55.668;37.858;2023-04-02T00:44:45;28.75;;;17.67;;
34673;SDS011;20879;55.668;37.858;2023-04-02T00:47:18;28.52;;;15.85;;
34673;SDS011;20879;55.668;37.858;2023-04-02T00:49:55;28.05;;;17.00;;
34673;SDS011;20879;55.668;37.858;2023-04-02T00:52:28;30.85;;;17.13;;
34673;SDS011;20879;55.668;37.858;2023-04-02T00:55:04;32.40;;;18.23;;
34673;SDS011;20879;55.668;37.858;2023-04-02T00:57:40;32.95;;;17.60;;
34673;SDS011;20879;55.668;37.858;2023-04-02T01:00:17;30.73;;;18.05;;
34673;SDS011;20879;55.668;37.858;2023-04-02T01:06:01;31.50;;;17.23;;
34673;SDS011;20879;55.668;37.858;2023-04-02T01:08:42;28.13;;;16.50;;
34673;SDS011;20879;55.668;37.858;2023-04-02T01:11:27;32.90;;;17.00;;
34673;SDS011;20879;55.668;37.858;2023-04-02T01:14:22;30.35;;;16.90;;
34673;SDS011;20879;55.668;37.858;2023-04-02T01:17:06;31.77;;;16.02;;
34673;SDS011;20879;55.668;37.858;2023-04-02T01:23:08;31.20;;;16.77;;
34673;SDS011;20879;55.668;37.858;2023-04-02T01:25:42;27.23;;;16.85;;
34673;SDS011;20879;55.668;37.858;2023-04-02T01:28:18;28.35;;;16.33;;
34673;SDS011;20879;55.668;37.858;2023-04-02T01:30:56;30.00;;;16.75;;
34673;SDS011;20879;55.668;37.858;2023-04-02T01:33:35;32.13;;;16.90;;
34673;SDS011;20879;55.668;37.858;2023-04-02T01:36:05;26.63;;;16.40;;
34673;SDS011;20879;55.668;37.858;2023-04-02T01:38:45;29.85;;;16.70;;
34673;SDS011;20879;55.668;37.858;2023-04-02T01:41:22;30.65;;;17.23;;
34673;SDS011;20879;55.668;37.858;2023-04-02T01:43:58;28.77;;;16.58;;
34673;SDS011;20879;55.668;37.858;2023-04-02T01:46:39;29.90;;;17.52;;
34673;SDS011;20879;55.668;37.858;2023-04-02T01:49:12;29.73;;;16.80;;
34673;SDS011;20879;55.668;37.858;2023-04-02T01:51:51;27.33;;;16.23;;
34673;SDS011;20879;55.668;37.858;2023-04-02T01:54:33;29.13;;;16.17;;
34673;SDS011;20879;55.668;37.858;2023-04-02T01:57:09;28.30;;;16.45;;
34673;SDS011;20879;55.668;37.858;2023-04-02T01:59:40;26.70;;;15.43;;
34673;SDS011;20879;55.668;37.858;2023-04-02T02:02:17;29.67;;;17.40;;
34673;SDS011;20879;55.668;37.858;2023-04-02T02:04:49;27.40;;;15.07;;
34673;SDS011;20879;55.668;37.858;2023-04-02T02:07:19;29.67;;;15.80;;
34673;SDS011;20879;55.668;37.858;2023-04-02T02:09:52;27.40;;;16.35;;
34673;SDS011;20879;55.668;37.858;2023-04-02T02:12:27;25.73;;;14.90;;
34673;SDS011;20879;55.668;37.858;2023-04-02T02:14:56;26.42;;;14.98;;
34673;SDS011;20879;55.668;37.858;2023-04-02T02:17:28;30.55;;;15.15;;
34673;SDS011;20879;55.668;37.858;2023-04-02T02:20:07;24.75;;;14.43;;
34673;SDS011;20879;55.668;37.858;2023-04-02T02:22:38;24.48;;;14.18;;
34673;SDS011;20879;55.668;37.858;2023-04-02T02:25:12;24.85;;;13.65;;
34673;SDS011;20879;55.668;37.858;2023-04-02T02:27:46;25.17;;;13.80;;
34673;SDS011;20879;55.668;37.858;2023-04-02T02:30:27;23.77;;;13.63;;
34673;SDS011;20879;55.668;37.858;2023-04-02T02:33:04;22.60;;;13.70;;
34673;SDS011;20879;55.668;37.858;2023-04-02T02:35:40;21.10;;;12.63;;
34673;SDS011;20879;55.668;37.858;2023-04-02T02:41:32;24.85;;;14.02;;
34673;SDS011;20879;55.668;37.858;2023-04-02T02:44:18;23.55;;;13.48;;
34673;SDS011;20879;55.668;37.858;2023-04-02T02:46:53;23.48;;;13.63;;
34673;SDS011;20879;55.668;37.858;2023-04-02T02:49:29;21.65;;;12.77;;
34673;SDS011;20879;55.668;37.858;2023-04-02T02:52:08;22.08;;;13.07;;
34673;SDS011;20879;55.668;37.858;2023-04-02T02:55:05;25.05;;;13.65;;
34673;SDS011;20879;55.668;37.858;2023-04-02T02:58:00;23.55;;;13.73;;
34673;SDS011;20879;55.668;37.858;2023-04-02T03:00:39;26.60;;;13.70;;
34673;SDS011;20879;55.668;37.858;2023-04-02T03:03:12;23.35;;;12.82;;
34673;SDS011;20879;55.668;37.858;2023-04-02T03:05:58;23.83;;;13.63;;
34673;SDS011;20879;55.668;37.858;2023-04-02T03:08:39;23.15;;;13.27;;
34673;SDS011;20879;55.668;37.858;2023-04-02T03:11:18;26.17;;;13.70;;
34673;SDS011;20879;55.668;37.858;2023-04-02T03:13:57;23.23;;;12.63;;
34673;SDS011;20879;55.668;37.858;2023-04-02T03:16:33;22.42;;;13.15;;
34673;SDS011;20879;55.668;37.858;2023-04-02T03:19:08;21.08;;;12.60;;
34673;SDS011;20879;55.668;37.858;2023-04-02T03:21:53;23.15;;;12.70;;
34673;SDS011;20879;55.668;37.858;2023-04-02T03:24:35;20.67;;;12.88;;
34673;SDS011;20879;55.668;37.858;2023-04-02T03:27:20;20.60;;;11.70;;
34673;SDS011;20879;55.668;37.858;2023-04-02T03:29:57;22.02;;;12.40;;
34673;SDS011;20879;55.668;37.858;2023-04-02T03:32:36;20.48;;;12.35;;
34673;SDS011;20879;55.668;37.858;2023-04-02T03:35:15;21.55;;;11.68;;
34673;SDS011;20879;55.668;37.858;2023-04-02T03:37:53;19.45;;;11.65;;
34673;SDS011;20879;55.668;37.858;2023-04-02T03:40:27;19.25;;;11.63;;
34673;SDS011;20879;55.668;37.858;2023-04-02T03:43:03;22.55;;;11.63;;
34673;SDS011;20879;55.668;37.858;2023-04-02T03:45:41;20.33;;;11.40;;
34673;SDS011;20879;55.668;37.858;2023-04-02T03:48:14;19.80;;;11.20;;
34673;SDS011;20879;55.668;37.858;2023-04-02T03:51:04;19.80;;;10.98;;
34673;SDS011;20879;55.668;37.858;2023-04-02T03:53:43;19.35;;;11.48;;
34673;SDS011;20879;55.668;37.858;2023-04-02T03:56:21;17.95;;;10.88;;
34673;SDS011;20879;55.668;37.858;2023-04-02T03:59:15;18.83;;;10.98;;
34673;SDS011;20879;55.668;37.858;2023-04-02T04:01:52;16.40;;;10.00;;
34673;SDS011;20879;55.668;37.858;2023-04-02T04:04:29;21.27;;;11.85;;
34673;SDS011;20879;55.668;37.858;2023-04-02T04:06:59;19.63;;;11.25;;
34673;SDS011;20879;55.668;37.858;2023-04-02T04:09:31;18.73;;;10.40;;
34673;SDS011;20879;55.668;37.858;2023-04-02T04:14:52;18.60;;;10.30;;
34673;SDS011;20879;55.668;37.858;2023-04-02T04:17:29;17.67;;;10.60;;
34673;SDS011;20879;55.668;37.858;2023-04-02T04:20:08;17.65;;;10.68;;
34673;SDS011;20879;55.668;37.858;2023-04-02T04:22:49;20.38;;;11.13;;
34673;SDS011;20879;55.668;37.858;2023-04-02T04:25:29;20.52;;;11.60;;
34673;SDS011;20879;55.668;37.858;2023-04-02T04:28:09;16.25;;;10.20;;
34673;SDS011;20879;55.668;37.858;2023-04-02T04:30:56;17.60;;;10.02;;
34673;SDS011;20879;55.668;37.858;2023-04-02T04:33:33;15.98;;;10.13;;
34673;SDS011;20879;55.668;37.858;2023-04-02T04:36:19;17.98;;;10.02;;
34673;SDS011;20879;55.668;37.858;2023-04-02T04:39:11;17.63;;;10.27;;
34673;SDS011;20879;55.668;37.858;2023-04-02T04:41:50;20.05;;;10.50;;
34673;SDS011;20879;55.668;37.858;2023-04-02T04:44:22;18.17;;;10.00;;
34673;SDS011;20879;55.668;37.858;2023-04-02T04:46:59;16.52;;;10.30;;
34673;SDS011;20879;55.668;37.858;2023-04-02T04:52:14;20.35;;;10.60;;
34673;SDS011;20879;55.668;37.858;2023-04-02T04:54:49;16.70;;;10.30;;
34673;SDS011;20879;55.668;37.858;2023-04-02T04:57:28;19.00;;;9.88;;
34673;SDS011;20879;55.668;37.858;2023-04-02T05:00:09;20.60;;;10.02;;
34673;SDS011;20879;55.668;37.858;2023-04-02T05:02:46;20.35;;;10.10;;
34673;SDS011;20879;55.668;37.858;2023-04-02T05:05:23;17.42;;;10.50;;
34673;SDS011;20879;55.668;37.858;2023-04-02T05:08:03;18.27;;;10.82;;
34673;SDS011;20879;55.668;37.858;2023-04-02T05:10:44;17.52;;;10.25;;
34673;SDS011;20879;55.668;37.858;2023-04-02T05:13:21;18.85;;;10.35;;
34673;SDS011;20879;55.668;37.858;2023-04-02T05:16:03;17.10;;;10.63;;
34673;SDS011;20879;55.668;37.858;2023-04-02T05:18:42;18.77;;;9.95;;
34673;SDS011;20879;55.668;37.858;2023-04-02T05:21:19;21.17;;;11.25;;
34673;SDS011;20879;55.668;37.858;2023-04-02T05:23:58;19.77;;;10.40;;
34673;SDS011;20879;55.668;37.858;2023-04-02T05:26:36;20.83;;;11.75;;
34673;SDS011;20879;55.668;37.858;2023-04-02T05:29:13;18.77;;;11.25;;
34673;SDS011;20879;55.668;37.858;2023-04-02T05:31:49;21.40;;;11.25;;
34673;SDS011;20879;55.668;37.858;2023-04-02T05:34:35;20.63;;;11.95;;
34673;SDS011;20879;55.668;37.858;2023-04-02T05:37:11;22.25;;;11.48;;
34673;SDS011;20879;55.668;37.858;2023-04-02T05:39:47;20.70;;;11.77;;
34673;SDS011;20879;55.668;37.858;2023-04-02T05:42:21;18.50;;;11.20;;
34673;SDS011;20879;55.668;37.858;2023-04-02T05:45:02;17.70;;;11.02;;
34673;SDS011;20879;55.668;37.858;2023-04-02T05:47:41;18.35;;;11.13;;
34673;SDS011;20879;55.668;37.858;2023-04-02T05:50:20;17.98;;;11.18;;
34673;SDS011;20879;55.668;37.858;2023-04-02T05:52:57;18.88;;;11.50;;
34673;SDS011;20879;55.668;37.858;2023-04-02T05:55:36;19.75;;;12.77;;
34673;SDS011;20879;55.668;37.858;2023-04-02T05:58:23;21.50;;;11.45;;
34673;SDS011;20879;55.668;37.858;2023-04-02T06:01:38;16.70;;;11.00;;
34673;SDS011;20879;55.668;37.858;2023-04-02T06:04:18;21.67;;;11.68;;
34673;SDS011;20879;55.668;37.858;2023-04-02T06:06:59;20.80;;;11.50;;
34673;SDS011;20879;55.668;37.858;2023-04-02T06:12:09;18.02;;;10.90;;
34673;SDS011;20879;55.668;37.858;2023-04-02T06:14:44;19.88;;;11.60;;
34673;SDS011;20879;55.668;37.858;2023-04-02T06:17:17;18.40;;;12.07;;
34673;SDS011;20879;55.668;37.858;2023-04-02T06:19:48;19.83;;;11.45;;
34673;SDS011;20879;55.668;37.858;2023-04-02T06:22:25;19.67;;;12.10;;
34673;SDS011;20879;55.668;37.858;2023-04-02T06:25:04;29.08;;;15.98;;
34673;SDS011;20879;55.668;37.858;2023-04-02T06:27:40;20.35;;;12.50;;
34673;SDS011;20879;55.668;37.858;2023-04-02T06:30:18;19.52;;;11.60;;
34673;SDS011;20879;55.668;37.858;2023-04-02T06:32:54;18.27;;;11.27;;
34673;SDS011;20879;55.668;37.858;2023-04-02T06:35:25;17.35;;;10.75;;
34673;SDS011;20879;55.668;37.858;2023-04-02T06:37:59;19.15;;;11.90;;
34673;SDS011;20879;55.668;37.858;2023-04-02T06:40:39;20.63;;;12.02;;
34673;SDS011;20879;55.668;37.858;2023-04-02T06:43:35;20.70;;;12.40;;
34673;SDS011;20879;55.668;37.858;2023-04-02T06:46:28;21.33;;;13.18;;
34673;SDS011;20879;55.668;37.858;2023-04-02T06:49:16;19.38;;;12.43;;
34673;SDS011;20879;55.668;37.858;2023-04-02T06:51:56;18.15;;;11.68;;
34673;SDS011;20879;55.668;37.858;2023-04-02T06:54:29;22.85;;;12.40;;
34673;SDS011;20879;55.668;37.858;2023-04-02T06:57:10;17.98;;;11.40;;
34673;SDS011;20879;55.668;37.858;2023-04-02T06:59:43;20.15;;;11.10;;
34673;SDS011;20879;55.668;37.858;2023-04-02T07:02:23;18.35;;;10.82;;
34673;SDS011;20879;55.668;37.858;2023-04-02T07:05:02;19.52;;;11.05;;
34673;SDS011;20879;55.668;37.858;2023-04-02T07:07:36;15.93;;;10.43;;
34673;SDS011;20879;55.668;37.858;2023-04-02T07:10:09;18.17;;;10.82;;
34673;SDS011;20879;55.668;37.858;2023-04-02T07:12:46;18.70;;;10.23;;
34673;SDS011;20879;55.668;37.858;2023-04-02T07:15:17;18.83;;;10.85;;
34673;SDS011;20879;55.668;37.858;2023-04-02T07:17:50;17.02;;;10.90;;
34673;SDS011;20879;55.668;37.858;2023-04-02T07:20:28;18.10;;;10.43;;
34673;SDS011;20879;55.668;37.858;2023-04-02T07:23:03;17.38;;;11.63;;
34673;SDS011;20879;55.668;37.858;2023-04-02T07:25:33;21.70;;;13.32;;
34673;SDS011;20879;55.668;37.858;2023-04-02T07:28:03;22.77;;;12.77;;
34673;SDS011;20879;55.668;37.858;2023-04-02T07:30:32;22.48;;;12.27;;
34673;SDS011;20879;55.668;37.858;2023-04-02T07:33:02;20.17;;;12.45;;
34673;SDS011;20879;55.668;37.858;2023-04-02T07:35:33;15.77;;;10.85;;
34673;SDS011;20879;55.668;37.858;2023-04-02T07:38:03;17.95;;;11.48;;
34673;SDS011;20879;55.668;37.858;2023-04-02T07:40:38;15.88;;;10.77;;
34673;SDS011;20879;55.668;37.858;2023-04-02T07:43:07;19.60;;;11.23;;
34673;SDS011;20879;55.668;37.858;2023-04-02T07:45:37;23.95;;;11.00;;
34673;SDS011;20879;55.668;37.858;2023-04-02T07:48:07;16.42;;;10.38;;
34673;SDS011;20879;55.668;37.858;2023-04-02T07:50:41;17.30;;;10.50;;
34673;SDS011;20879;55.668;37.858;2023-04-02T07:53:15;18.27;;;10.10;;
34673;SDS011;20879;55.668;37.858;2023-04-02T07:56:05;20.42;;;10.88;;
34673;SDS011;20879;55.668;37.858;2023-04-02T07:58:40;17.05;;;10.60;;
34673;SDS011;20879;55.668;37.858;2023-04-02T08:01:19;14.13;;;10.63;;
34673;SDS011;20879;55.668;37.858;2023-04-02T08:04:03;21.13;;;12.10;;
34673;SDS011;20879;55.668;37.858;2023-04-02T08:06:37;19.83;;;10.88;;
34673;SDS011;20879;55.668;37.858;2023-04-02T08:09:06;18.52;;;11.20;;
34673;SDS011;20879;55.668;37.858;2023-04-02T08:11:38;19.50;;;11.73;;
34673;SDS011;20879;55.668;37.858;2023-04-02T08:14:08;15.02;;;10.23;;
34673;SDS011;20879;55.668;37.858;2023-04-02T08:16:45;16.67;;;11.40;;
34673;SDS011;20879;55.668;37.858;2023-04-02T08:19:15;18.67;;;11.85;;
34673;SDS011;20879;55.668;37.858;2023-04-02T08:21:47;18.33;;;10.93;;
34673;SDS011;20879;55.668;37.858;2023-04-02T08:24:19;19.60;;;11.50;;
34673;SDS011;20879;55.668;37.858;2023-04-02T08:26:49;17.85;;;11.98;;
34673;SDS011;20879;55.668;37.858;2023-04-02T08:29:18;22.70;;;13.35;;
34673;SDS011;20879;55.668;37.858;2023-04-02T08:31:48;21.55;;;13.85;;
34673;SDS011;20879;55.668;37.858;2023-04-02T08:34:18;25.35;;;14.15;;
34673;SDS011;20879;55.668;37.858;2023-04-02T08:36:54;21.83;;;13.25;;
34673;SDS011;20879;55.668;37.858;2023-04-02T08:39:24;21.52;;;12.82;;
34673;SDS011;20879;55.668;37.858;2023-04-02T08:42:05;28.88;;;12.48;;
34673;SDS011;20879;55.668;37.858;2023-04-02T08:44:45;23.02;;;12.27;;
34673;SDS011;20879;55.668;37.858;2023-04-02T08:47:22;17.63;;;11.88;;
34673;SDS011;20879;55.668;37.858;2023-04-02T08:50:02;20.65;;;12.27;;
34673;SDS011;20879;55.668;37.858;2023-04-02T08:52:37;23.08;;;12.13;;
34673;SDS011;20879;55.668;37.858;2023-04-02T08:55:12;19.33;;;12.15;;
34673;SDS011;20879;55.668;37.858;2023-04-02T08:57:54;18.98;;;11.30;;
34673;SDS011;20879;55.668;37.858;2023-04-02T09:00:34;19.52;;;11.70;;
34673;SDS011;20879;55.668;37.858;2023-04-02T09:03:07;19.67;;;10.73;;
34673;SDS011;20879;55.668;37.858;2023-04-02T09:05:44;19.13;;;11.60;;
34673;SDS011;20879;55.668;37.858;2023-04-02T09:08:22;19.05;;;10.95;;
34673;SDS011;20879;55.668;37.858;2023-04-02T09:10:54;20.35;;;12.38;;
34673;SDS011;20879;55.668;37.858;2023-04-02T09:13:30;17.35;;;10.82;;
34673;SDS011;20879;55.668;37.858;2023-04-02T09:16:10;17.15;;;11.05;;
34673;SDS011;20879;55.668;37.858;2023-04-02T09:18:41;21.88;;;11.10;;
34673;SDS011;20879;55.668;37.858;2023-04-02T09:21:16;17.25;;;10.80;;
34673;SDS011;20879;55.668;37.858;2023-04-02T09:23:56;16.23;;;10.13;;
34673;SDS011;20879;55.668;37.858;2023-04-02T09:26:37;19.10;;;10.52;;
34673;SDS011;20879;55.668;37.858;2023-04-02T09:32:11;18.05;;;10.98;;
34673;SDS011;20879;55.668;37.858;2023-04-02T09:34:51;16.48;;;9.88;;
34673;SDS011;20879;55.668;37.858;2023-04-02T09:43:17;15.90;;;9.43;;
34673;SDS011;20879;55.668;37.858;2023-04-02T09:45:57;16.77;;;8.40;;
34673;SDS011;20879;55.668;37.858;2023-04-02T09:48:30;18.42;;;9.02;;
34673;SDS011;20879;55.668;37.858;2023-04-02T09:51:05;20.02;;;9.65;;
34673;SDS011;20879;55.668;37.858;2023-04-02T09:53:40;14.93;;;9.68;;
34673;SDS011;20879;55.668;37.858;2023-04-02T09:56:19;20.20;;;8.73;;
34673;SDS011;20879;55.668;37.858;2023-04-02T09:59:00;17.15;;;9.43;;
34673;SDS011;20879;55.668;37.858;2023-04-02T10:01:32;12.48;;;8.73;;
34673;SDS011;20879;55.668;37.858;2023-04-02T10:04:04;16.02;;;8.90;;
34673;SDS011;20879;55.668;37.858;2023-04-02T10:06:47;16.77;;;8.70;;
34673;SDS011;20879;55.668;37.858;2023-04-02T10:09:19;17.95;;;9.00;;
34673;SDS011;20879;55.668;37.858;2023-04-02T10:11:57;16.27;;;9.05;;
34673;SDS011;20879;55.668;37.858;2023-04-02T10:14:30;19.88;;;8.88;;
34673;SDS011;20879;55.668;37.858;2023-04-02T10:17:14;12.73;;;8.43;;
34673;SDS011;20879;55.668;37.858;2023-04-02T10:19:47;16.25;;;8.52;;
34673;SDS011;20879;55.668;37.858;2023-04-02T10:22:22;14.98;;;8.73;;
34673;SDS011;20879;55.668;37.858;2023-04-02T10:24:52;14.55;;;8.20;;
34673;SDS011;20879;55.668;37.858;2023-04-02T10:27:25;17.15;;;8.55;;
34673;SDS011;20879;55.668;37.858;2023-04-02T10:30:11;11.23;;;7.90;;
34673;SDS011;20879;55.668;37.858;2023-04-02T10:32:47;15.90;;;8.88;;
34673;SDS011;20879;55.668;37.858;2023-04-02T10:35:27;13.98;;;8.63;;
34673;SDS011;20879;55.668;37.858;2023-04-02T10:38:10;14.35;;;8.93;;
34673;SDS011;20879;55.668;37.858;2023-04-02T10:40:47;14.93;;;9.00;;
34673;SDS011;20879;55.668;37.858;2023-04-02T10:46:49;12.95;;;8.32;;
34673;SDS011;20879;55.668;37.858;2023-04-02T10:49:29;15.13;;;8.20;;
34673;SDS011;20879;55.668;37.858;2023-04-02T10:52:05;13.88;;;8.07;;
34673;SDS011;20879;55.668;37.858;2023-04-02T10:54:40;14.77;;;7.95;;
34673;SDS011;20879;55.668;37.858;2023-04-02T10:57:27;19.55;;;8.50;;
34673;SDS011;20879;55.668;37.858;2023-04-02T11:00:07;16.60;;;8.63;;
34673;SDS011;20879;55.668;37.858;2023-04-02T11:02:55;16.85;;;8.10;;
34673;SDS011;20879;55.668;37.858;2023-04-02T11:05:32;17.63;;;8.55;;
34673;SDS011;20879;55.668;37.858;2023-04-02T11:08:12;16.13;;;8.50;;
34673;SDS011;20879;55.668;37.858;2023-04-02T11:10:48;14.80;;;8.13;;
34673;SDS011;20879;55.668;37.858;2023-04-02T11:13:22;14.45;;;8.50;;
34673;SDS011;20879;55.668;37.858;2023-04-02T11:15:55;18.85;;;8.02;;
34673;SDS011;20879;55.668;37.858;2023-04-02T11:18:27;13.35;;;8.20;;
34673;SDS011;20879;55.668;37.858;2023-04-02T11:21:02;13.35;;;8.75;;
34673;SDS011;20879;55.668;37.858;2023-04-02T11:23:49;15.27;;;8.55;;
34673;SDS011;20879;55.668;37.858;2023-04-02T11:29:21;17.95;;;8.45;;
34673;SDS011;20879;55.668;37.858;2023-04-02T11:44:31;17.80;;;9.07;;
34673;SDS011;20879;55.668;37.858;2023-04-02T11:47:14;17.30;;;8.48;;
34673;SDS011;20879;55.668;37.858;2023-04-02T11:52:55;13.88;;;8.52;;
34673;SDS011;20879;55.668;37.858;2023-04-02T11:55:29;18.50;;;8.90;;
34673;SDS011;20879;55.668;37.858;2023-04-02T11:58:02;15.95;;;8.60;;
34673;SDS011;20879;55.668;37.858;2023-04-02T12:04:07;18.67;;;8.73;;
34673;SDS011;20879;55.668;37.858;2023-04-02T12:06:52;20.08;;;8.15;;
34673;SDS011;20879;55.668;37.858;2023-04-02T12:09:41;16.33;;;8.20;;
34673;SDS011;20879;55.668;37.858;2023-04-02T12:12:24;20.45;;;8.48;;
34673;SDS011;20879;55.668;37.858;2023-04-02T12:14:55;15.32;;;7.95;;
34673;SDS011;20879;55.668;37.858;2023-04-02T12:17:29;18.08;;;8.88;;
34673;SDS011;20879;55.668;37.858;2023-04-02T12:20:16;17.27;;;8.55;;
34673;SDS011;20879;55.668;37.858;2023-04-02T12:22:53;17.23;;;11.30;;
34673;SDS011;20879;55.668;37.858;2023-04-02T12:25:27;21.27;;;13.63;;
34673;SDS011;20879;55.668;37.858;2023-04-02T12:28:02;22.63;;;12.88;;
34673;SDS011;20879;55.668;37.858;2023-04-02T12:30:38;18.23;;;11.82;;
34673;SDS011;20879;55.668;37.858;2023-04-02T12:35:57;15.32;;;9.00;;
34673;SDS011;20879;55.668;37.858;2023-04-02T12:38:27;17.85;;;8.65;;
34673;SDS011;20879;55.668;37.858;2023-04-02T12:41:02;16.15;;;8.10;;
34673;SDS011;20879;55.668;37.858;2023-04-02T12:43:38;20.00;;;7.70;;
34673;SDS011;20879;55.668;37.858;2023-04-02T12:52:20;27.70;;;9.05;;
34673;SDS011;20879;55.668;37.858;2023-04-02T12:54:54;12.38;;;7.45;;
34673;SDS011;20879;55.668;37.858;2023-04-02T12:57:36;17.80;;;8.05;;
34673;SDS011;20879;55.668;37.858;2023-04-02T13:03:15;14.73;;;7.75;;
34673;SDS011;20879;55.668;37.858;2023-04-02T13:05:51;13.38;;;8.02;;
34673;SDS011;20879;55.668;37.858;2023-04-02T13:08:25;14.13;;;7.75;;
34673;SDS011;20879;55.668;37.858;2023-04-02T13:10:59;15.10;;;7.10;;
34673;SDS011;20879;55.668;37.858;2023-04-02T13:13:31;13.98;;;8.18;;
34673;SDS011;20879;55.668;37.858;2023-04-02T13:16:06;15.43;;;7.15;;
34673;SDS011;20879;55.668;37.858;2023-04-02T13:21:48;14.57;;;7.82;;
34673;SDS011;20879;55.668;37.858;2023-04-02T13:24:21;24.33;;;9.65;;
34673;SDS011;20879;55.668;37.858;2023-04-02T13:26:53;17.45;;;8.05;;
34673;SDS011;20879;55.668;37.858;2023-04-02T13:29:27;18.25;;;8.25;;
34673;SDS011;20879;55.668;37.858;2023-04-02T13:31:58;14.48;;;8.13;;
34673;SDS011;20879;55.668;37.858;2023-04-02T13:34:29;13.18;;;7.32;;
34673;SDS011;20879;55.668;37.858;2023-04-02T13:37:03;16.77;;;8.50;;
34673;SDS011;20879;55.668;37.858;2023-04-02T13:39:34;18.15;;;7.80;;
34673;SDS011;20879;55.668;37.858;2023-04-02T13:42:09;13.48;;;7.35;;
34673;SDS011;20879;55.668;37.858;2023-04-02T13:44:39;12.32;;;7.22;;
34673;SDS011;20879;55.668;37.858;2023-04-02T13:47:12;13.88;;;6.55;;
34673;SDS011;20879;55.668;37.858;2023-04-02T13:49:42;14.82;;;6.68;;
34673;SDS011;20879;55.668;37.858;2023-04-02T13:52:12;18.95;;;7.25;;
34673;SDS011;20879;55.668;37.858;2023-04-02T13:54:45;12.98;;;6.57;;
34673;SDS011;20879;55.668;37.858;2023-04-02T13:57:16;18.75;;;6.80;;
34673;SDS011;20879;55.668;37.858;2023-04-02T14:00:02;13.70;;;5.93;;
34673;SDS011;20879;55.668;37.858;2023-04-02T14:02:33;15.70;;;6.93;;
34673;SDS011;20879;55.668;37.858;2023-04-02T14:05:15;12.43;;;6.63;;
34673;SDS011;20879;55.668;37.858;2023-04-02T14:07:56;15.68;;;6.47;;
34673;SDS011;20879;55.668;37.858;2023-04-02T14:10:46;13.13;;;6.57;;
34673;SDS011;20879;55.668;37.858;2023-04-02T14:13:31;14.93;;;6.47;;
34673;SDS011;20879;55.668;37.858;2023-04-02T14:16:17;14.48;;;6.65;;
34673;SDS011;20879;55.668;37.858;2023-04-02T14:19:07;20.27;;;6.80;;
34673;SDS011;20879;55.668;37.858;2023-04-02T14:21:50;13.15;;;6.53;;
34673;SDS011;20879;55.668;37.858;2023-04-02T14:24:32;15.90;;;6.50;;
34673;SDS011;20879;55.668;37.858;2023-04-02T14:27:21;15.23;;;6.18;;
34673;SDS011;20879;55.668;37.858;2023-04-02T14:30:05;17.42;;;6.80;;
34673;SDS011;20879;55.668;37.858;2023-04-02T14:32:44;13.48;;;6.28;;
34673;SDS011;20879;55.668;37.858;2023-04-02T14:35:31;14.98;;;5.93;;
34673;SDS011;20879;55.668;37.858;2023-04-02T14:38:11;11.90;;;6.32;;
34673;SDS011;20879;55.668;37.858;2023-04-02T14:40:47;13.50;;;6.07;;
34673;SDS011;20879;55.668;37.858;2023-04-02T14:43:31;12.90;;;6.20;;
34673;SDS011;20879;55.668;37.858;2023-04-02T14:46:08;13.60;;;6.50;;
34673;SDS011;20879;55.668;37.858;2023-04-02T14:48:43;11.43;;;6.10;;
34673;SDS011;20879;55.668;37.858;2023-04-02T14:51:20;19.83;;;6.63;;
34673;SDS011;20879;55.668;37.858;2023-04-02T14:53:56;17.58;;;6.55;;
34673;SDS011;20879;55.668;37.858;2023-04-02T14:56:30;14.00;;;6.47;;
34673;SDS011;20879;55.668;37.858;2023-04-02T14:59:21;10.95;;;6.75;;
34673;SDS011;20879;55.668;37.858;2023-04-02T15:01:57;16.00;;;7.13;;
34673;SDS011;20879;55.668;37.858;2023-04-02T15:04:32;13.52;;;6.65;;
34673;SDS011;20879;55.668;37.858;2023-04-02T15:07:08;16.65;;;7.15;;
34673;SDS011;20879;55.668;37.858;2023-04-02T15:09:48;13.57;;;7.32;;
34673;SDS011;20879;55.668;37.858;2023-04-02T15:12:23;13.27;;;6.65;;
34673;SDS011;20879;55.668;37.858;2023-04-02T15:15:01;19.90;;;7.50;;
34673;SDS011;20879;55.668;37.858;2023-04-02T15:17:36;15.43;;;6.00;;
34673;SDS011;20879;55.668;37.858;2023-04-02T15:20:10;16.45;;;5.65;;
34673;SDS011;20879;55.668;37.858;2023-04-02T15:22:43;12.25;;;5.75;;
34673;SDS011;20879;55.668;37.858;2023-04-02T15:25:25;10.43;;;5.30;;
34673;SDS011;20879;55.668;37.858;2023-04-02T15:28:05;12.30;;;5.43;;
34673;SDS011;20879;55.668;37.858;2023-04-02T15:30:49;14.00;;;6.13;;
34673;SDS011;20879;55.668;37.858;2023-04-02T15:33:37;16.30;;;5.55;;
34673;SDS011;20879;55.668;37.858;2023-04-02T15:39:27;14.20;;;6.80;;
34673;SDS011;20879;55.668;37.858;2023-04-02T15:42:11;21.08;;;6.82;;
34673;SDS011;20879;55.668;37.858;2023-04-02T15:45:03;11.98;;;6.50;;
34673;SDS011;20879;55.668;37.858;2023-04-02T15:47:50;17.85;;;7.93;;
34673;SDS011;20879;55.668;37.858;2023-04-02T15:50:54;16.92;;;6.63;;
34673;SDS011;20879;55.668;37.858;2023-04-02T15:53:33;12.27;;;5.97;;
34673;SDS011;20879;55.668;37.858;2023-04-02T15:56:25;13.35;;;6.30;;
34673;SDS011;20879;55.668;37.858;2023-04-02T15:59:12;19.80;;;6.35;;
34673;SDS011;20879;55.668;37.858;2023-04-02T16:02:09;16.77;;;7.32;;
34673;SDS011;20879;55.668;37.858;2023-04-02T16:05:02;19.02;;;7.43;;
34673;SDS011;20879;55.668;37.858;2023-04-02T16:10:38;13.85;;;6.38;;
34673;SDS011;20879;55.668;37.858;2023-04-02T16:13:14;11.73;;;5.85;;
34673;SDS011;20879;55.668;37.858;2023-04-02T16:15:49;17.35;;;6.38;;
34673;SDS011;20879;55.668;37.858;2023-04-02T16:18:26;21.15;;;6.28;;
34673;SDS011;20879;55.668;37.858;2023-04-02T16:21:02;14.38;;;5.70;;
34673;SDS011;20879;55.668;37.858;2023-04-02T16:23:33;11.00;;;5.45;;
34673;SDS011;20879;55.668;37.858;2023-04-02T16:26:08;16.45;;;5.78;;
34673;SDS011;20879;55.668;37.858;2023-04-02T16:28:57;8.40;;;4.75;;